Historique des mesures à Cassis (13260), France
Quotidien Résumé Juin 11, 2021 Unités:  Métrique/US    US   Métrique
Quotidien Hebdomadaire Mensuel Annuel
  Maximum: Minimum: Moyenne:
Température: 69.1 °F /  20.6 °C 55.4 °F /  13 °C 61.2 °F /  16.2 °C
Point de rosée: 57.7 °F /  14.3 °C 44.8 °F /  7.1 °C 50.2 °F /  10.1 °C
Humidité: 82% 55% 68%
Vitesse du vent: 12.6mph /  20.2km/h - 3.4mph /  5.4km/h
Rafales: 14.3mph /  23km/h - -
Vent- - WNW
Pression: 30.1 in /  1017.5 hPa 30 in /  1015.4 hPa -
Précipitations: 0 in /  0.0 mm    
Historical Graphs
 
 
Mesures pour : Juin 11, 2021
Heure Temperature Point de rosée Pression Vent Vitesse du vent Rafales Humidité Pluie (par heure)
00:11 57 °F /  13.9 °C 46.9 °F /  8.3 °C 30in /  1015.8hPa Calm   4.5mph /  7.2km/h 69% 0in /  0.0mm
01:11 56.8 °F /  13.8 °C 47.1 °F /  8.4 °C 30in /  1015.8hPa NW 1.6mph /  2.5km/h 5.3mph /  8.6km/h 70% 0in /  0.0mm
02:11 57 °F /  13.9 °C 47.3 °F /  8.5 °C 30in /  1015.7hPa NNW 8.3mph /  13.3km/h 11.9mph /  19.1km/h 70% 0in /  0.0mm
03:11 57 °F /  13.9 °C 46.9 °F /  8.3 °C 30in /  1015.9hPa NNW 2.2mph /  3.6km/h 4.7mph /  7.6km/h 69% 0in /  0.0mm
04:11 55.9 °F /  13.3 °C 47.3 °F /  8.5 °C 30in /  1015.9hPa WNW 2.5mph /  4km/h 5.3mph /  8.6km/h 73% 0in /  0.0mm
05:11 55.6 °F /  13.1 °C 48 °F /  8.9 °C 30in /  1015.4hPa Calm   3.6mph /  5.8km/h 76% 0in /  0.0mm
06:11 55.4 °F /  13 °C 48.9 °F /  9.4 °C 30in /  1015.5hPa NW 2.5mph /  4km/h 5.3mph /  8.6km/h 79% 0in /  0.0mm
07:11 55.6 °F /  13.1 °C 50.2 °F /  10.1 °C 30in /  1015.7hPa NW 5.2mph /  8.3km/h 9.2mph /  14.8km/h 82% 0in /  0.0mm
08:11 56.1 °F /  13.4 °C 49.3 °F /  9.6 °C 30in /  1016.1hPa NW 4.7mph /  7.6km/h 11.4mph /  18.4km/h 78% 0in /  0.0mm
09:11 59.4 °F /  15.2 °C 50.4 °F /  10.2 °C 30in /  1016.4hPa WNW 2.9mph /  4.7km/h 3.8mph /  6.1km/h 72% 0in /  0.0mm
10:11 60.8 °F /  16 °C 51.8 °F /  11 °C 30in /  1017.0hPa Calm     72% 0in /  0.0mm
11:11 63 °F /  17.2 °C 53.1 °F /  11.7 °C 30.1in /  1017.5hPa NW 1.1mph /  1.8km/h 2.7mph /  4.3km/h 70% 0in /  0.0mm
12:11 65.5 °F /  18.6 °C 55 °F /  12.8 °C 30.1in /  1017.5hPa South 2.2mph /  3.6km/h 4mph /  6.5km/h 69% 0in /  0.0mm
13:11 67.1 °F /  19.5 °C 56.1 °F /  13.4 °C 30in /  1017.4hPa Calm   4.7mph /  7.6km/h 68% 0in /  0.0mm
14:11 68.2 °F /  20.1 °C 57.7 °F /  14.3 °C 30in /  1016.8hPa SSE 1.4mph /  2.2km/h 3.6mph /  5.8km/h 69% 0in /  0.0mm
15:11 68.5 °F /  20.3 °C 57.2 °F /  14 °C 30in /  1016.6hPa Calm   7mph /  11.2km/h 67% 0in /  0.0mm
16:11 69.1 °F /  20.6 °C 56.8 °F /  13.8 °C 30in /  1015.9hPa Calm   7mph /  11.2km/h 65% 0in /  0.0mm
17:11 68.7 °F /  20.4 °C 53.4 °F /  11.9 °C 30in /  1015.8hPa WSW 4mph /  6.5km/h 12.7mph /  20.5km/h 58% 0in /  0.0mm
18:11 67.6 °F /  19.8 °C 50.9 °F /  10.5 °C 30in /  1015.7hPa West 12.6mph /  20.2km/h 12.6mph /  20.2km/h 55% 0in /  0.0mm
19:11 64 °F /  17.8 °C 47.8 °F /  8.8 °C 30in /  1015.9hPa WNW 10.3mph /  16.6km/h 13mph /  20.9km/h 56% 0in /  0.0mm
20:11 61.9 °F /  16.6 °C 46.4 °F /  8 °C 30in /  1015.9hPa WNW 6.7mph /  10.8km/h 14.3mph /  23km/h 57% 0in /  0.0mm
21:11 59.7 °F /  15.4 °C 45.9 °F /  7.7 °C 30in /  1016.0hPa West 4.5mph /  7.2km/h 6.3mph /  10.1km/h 60% 0in /  0.0mm
22:11 58.8 °F /  14.9 °C 45.9 °F /  7.7 °C 30in /  1015.8hPa NW 2.2mph /  3.6km/h 4.9mph /  7.9km/h 62% 0in /  0.0mm
23:11 58.6 °F /  14.8 °C 44.8 °F /  7.1 °C 30in /  1015.5hPa NW 6mph /  9.7km/h 6.7mph /  10.8km/h 60% 0in /  0.0mm
Observations météo à CASSIS
WU-History script by Weather Underground - 2 mb